sensor_id;sensor_type;location;lat;lon;timestamp;temperature;humidity
52275;DHT22;38228;50.940;4.024;2023-02-28T00:00:04;2.30;99.90
52275;DHT22;38228;50.940;4.024;2023-02-28T00:02:39;2.30;99.90
52275;DHT22;38228;50.940;4.024;2023-02-28T00:05:05;2.40;99.90
52275;DHT22;38228;50.940;4.024;2023-02-28T00:07:31;2.60;99.90
52275;DHT22;38228;50.940;4.024;2023-02-28T00:09:57;2.60;99.90
52275;DHT22;38228;50.940;4.024;2023-02-28T00:12:23;2.40;99.90
52275;DHT22;38228;50.940;4.024;2023-02-28T00:14:49;2.20;99.90
52275;DHT22;38228;50.940;4.024;2023-02-28T00:17:15;2.10;99.90
52275;DHT22;38228;50.940;4.024;2023-02-28T00:19:41;1.80;99.90
52275;DHT22;38228;50.940;4.024;2023-02-28T00:22:07;1.70;99.90
52275;DHT22;38228;50.940;4.024;2023-02-28T00:24:33;1.70;99.90
52275;DHT22;38228;50.940;4.024;2023-02-28T00:26:58;1.90;99.90
52275;DHT22;38228;50.940;4.024;2023-02-28T00:29:24;1.80;99.90
52275;DHT22;38228;50.940;4.024;2023-02-28T00:31:49;1.80;99.90
52275;DHT22;38228;50.940;4.024;2023-02-28T00:34:15;1.80;99.90
52275;DHT22;38228;50.940;4.024;2023-02-28T00:36:40;1.70;99.90
52275;DHT22;38228;50.940;4.024;2023-02-28T00:39:10;1.60;99.90
52275;DHT22;38228;50.940;4.024;2023-02-28T00:41:36;1.50;99.90
52275;DHT22;38228;50.940;4.024;2023-02-28T00:44:02;1.50;99.90
52275;DHT22;38228;50.940;4.024;2023-02-28T00:46:27;1.70;99.90
52275;DHT22;38228;50.940;4.024;2023-02-28T00:48:53;1.60;99.90
52275;DHT22;38228;50.940;4.024;2023-02-28T00:51:18;1.50;99.90
52275;DHT22;38228;50.940;4.024;2023-02-28T00:53:44;1.50;99.90
52275;DHT22;38228;50.940;4.024;2023-02-28T00:56:10;1.20;99.90
52275;DHT22;38228;50.940;4.024;2023-02-28T00:58:35;1.10;99.90
52275;DHT22;38228;50.940;4.024;2023-02-28T01:01:01;1.00;99.90
52275;DHT22;38228;50.940;4.024;2023-02-28T01:03:26;1.10;99.90
52275;DHT22;38228;50.940;4.024;2023-02-28T01:05:52;1.10;99.90
52275;DHT22;38228;50.940;4.024;2023-02-28T01:08:18;1.10;99.90
52275;DHT22;38228;50.940;4.024;2023-02-28T01:10:44;1.00;99.90
52275;DHT22;38228;50.940;4.024;2023-02-28T01:13:09;1.00;99.90
52275;DHT22;38228;50.940;4.024;2023-02-28T01:15:35;1.10;99.90
52275;DHT22;38228;50.940;4.024;2023-02-28T01:18:01;1.30;99.90
52275;DHT22;38228;50.940;4.024;2023-02-28T01:20:26;1.30;99.90
52275;DHT22;38228;50.940;4.024;2023-02-28T01:22:52;1.60;99.90
52275;DHT22;38228;50.940;4.024;2023-02-28T01:25:17;1.30;99.90
52275;DHT22;38228;50.940;4.024;2023-02-28T01:27:43;0.90;99.90
52275;DHT22;38228;50.940;4.024;2023-02-28T01:30:09;0.80;99.90
52275;DHT22;38228;50.940;4.024;2023-02-28T01:32:35;0.60;99.90
52275;DHT22;38228;50.940;4.024;2023-02-28T01:35:00;0.60;99.90
52275;DHT22;38228;50.940;4.024;2023-02-28T01:37:26;0.60;99.90
52275;DHT22;38228;50.940;4.024;2023-02-28T01:39:52;0.60;99.90
52275;DHT22;38228;50.940;4.024;2023-02-28T01:42:17;0.50;99.90
52275;DHT22;38228;50.940;4.024;2023-02-28T01:47:29;0.40;99.90
52275;DHT22;38228;50.940;4.024;2023-02-28T01:49:56;0.40;99.90
52275;DHT22;38228;50.940;4.024;2023-02-28T01:52:22;0.40;99.90
52275;DHT22;38228;50.940;4.024;2023-02-28T01:54:54;0.30;99.90
52275;DHT22;38228;50.940;4.024;2023-02-28T01:57:22;0.30;99.90
52275;DHT22;38228;50.940;4.024;2023-02-28T01:59:54;0.40;99.90
52275;DHT22;38228;50.940;4.024;2023-02-28T02:02:21;0.30;99.90
52275;DHT22;38228;50.940;4.024;2023-02-28T02:04:55;0.20;99.90
52275;DHT22;38228;50.940;4.024;2023-02-28T02:07:21;0.20;99.90
52275;DHT22;38228;50.940;4.024;2023-02-28T02:09:48;0.30;99.90
52275;DHT22;38228;50.940;4.024;2023-02-28T02:12:26;0.30;99.90
52275;DHT22;38228;50.940;4.024;2023-02-28T02:15:11;0.40;99.90
52275;DHT22;38228;50.940;4.024;2023-02-28T02:17:40;0.50;99.90
52275;DHT22;38228;50.940;4.024;2023-02-28T02:20:23;0.60;99.90
52275;DHT22;38228;50.940;4.024;2023-02-28T02:33:45;0.20;99.90
52275;DHT22;38228;50.940;4.024;2023-02-28T02:43:48;0.10;99.90
52275;DHT22;38228;50.940;4.024;2023-02-28T02:49:20;0.10;99.90
52275;DHT22;38228;50.940;4.024;2023-02-28T02:51:46;0.10;99.90
52275;DHT22;38228;50.940;4.024;2023-02-28T02:54:13;0.00;99.90
52275;DHT22;38228;50.940;4.024;2023-02-28T02:56:44;-0.10;99.90
52275;DHT22;38228;50.940;4.024;2023-02-28T02:59:12;0.10;99.90
52275;DHT22;38228;50.940;4.024;2023-02-28T03:01:39;0.00;99.90
52275;DHT22;38228;50.940;4.024;2023-02-28T03:04:10;-0.10;99.90
52275;DHT22;38228;50.940;4.024;2023-02-28T03:06:37;0.00;99.90
52275;DHT22;38228;50.940;4.024;2023-02-28T03:09:02;0.00;99.90
52275;DHT22;38228;50.940;4.024;2023-02-28T03:11:30;0.00;99.90
52275;DHT22;38228;50.940;4.024;2023-02-28T03:17:42;0.00;99.90
52275;DHT22;38228;50.940;4.024;2023-02-28T03:27:06;-0.10;99.90
52275;DHT22;38228;50.940;4.024;2023-02-28T03:31:59;-0.20;99.90
52275;DHT22;38228;50.940;4.024;2023-02-28T03:34:29;-0.30;99.90
52275;DHT22;38228;50.940;4.024;2023-02-28T03:36:59;-0.30;99.90
52275;DHT22;38228;50.940;4.024;2023-02-28T03:39:28;-0.20;99.90
52275;DHT22;38228;50.940;4.024;2023-02-28T03:42:00;-0.20;99.90
52275;DHT22;38228;50.940;4.024;2023-02-28T03:44:29;-0.30;99.90
52275;DHT22;38228;50.940;4.024;2023-02-28T03:46:57;-0.20;99.90
52275;DHT22;38228;50.940;4.024;2023-02-28T03:49:25;-0.30;99.90
52275;DHT22;38228;50.940;4.024;2023-02-28T03:51:53;-0.20;99.90
52275;DHT22;38228;50.940;4.024;2023-02-28T03:54:23;-0.20;99.90
52275;DHT22;38228;50.940;4.024;2023-02-28T03:56:54;-0.10;99.90
52275;DHT22;38228;50.940;4.024;2023-02-28T03:59:28;0.20;99.90
52275;DHT22;38228;50.940;4.024;2023-02-28T04:01:55;0.10;99.90
52275;DHT22;38228;50.940;4.024;2023-02-28T04:04:23;-0.10;99.90
52275;DHT22;38228;50.940;4.024;2023-02-28T04:06:50;-0.20;99.90
52275;DHT22;38228;50.940;4.024;2023-02-28T04:09:15;-0.10;99.90
52275;DHT22;38228;50.940;4.024;2023-02-28T04:14:07;-0.30;99.90
52275;DHT22;38228;50.940;4.024;2023-02-28T04:16:33;-0.30;99.90
52275;DHT22;38228;50.940;4.024;2023-02-28T04:18:59;-0.40;99.90
52275;DHT22;38228;50.940;4.024;2023-02-28T04:21:28;-0.40;99.90
52275;DHT22;38228;50.940;4.024;2023-02-28T04:23:54;-0.30;99.90
52275;DHT22;38228;50.940;4.024;2023-02-28T04:26:19;-0.30;99.90
52275;DHT22;38228;50.940;4.024;2023-02-28T04:28:45;-0.20;99.90
52275;DHT22;38228;50.940;4.024;2023-02-28T04:31:11;-0.30;99.90
52275;DHT22;38228;50.940;4.024;2023-02-28T04:33:36;-0.30;99.90
52275;DHT22;38228;50.940;4.024;2023-02-28T04:36:03;-0.30;99.90
52275;DHT22;38228;50.940;4.024;2023-02-28T04:38:32;-0.40;99.90
52275;DHT22;38228;50.940;4.024;2023-02-28T04:40:58;-0.30;99.90
52275;DHT22;38228;50.940;4.024;2023-02-28T04:43:23;-0.10;99.90
52275;DHT22;38228;50.940;4.024;2023-02-28T04:45:49;-0.10;99.90
52275;DHT22;38228;50.940;4.024;2023-02-28T04:48:15;0.00;99.90
52275;DHT22;38228;50.940;4.024;2023-02-28T04:50:40;0.00;99.90
52275;DHT22;38228;50.940;4.024;2023-02-28T04:53:06;0.40;99.90
52275;DHT22;38228;50.940;4.024;2023-02-28T04:55:31;0.50;99.90
52275;DHT22;38228;50.940;4.024;2023-02-28T04:57:57;0.50;99.90
52275;DHT22;38228;50.940;4.024;2023-02-28T05:00:23;0.70;99.90
52275;DHT22;38228;50.940;4.024;2023-02-28T05:02:48;0.70;99.90
52275;DHT22;38228;50.940;4.024;2023-02-28T05:05:14;0.70;99.90
52275;DHT22;38228;50.940;4.024;2023-02-28T05:07:43;0.60;99.90
52275;DHT22;38228;50.940;4.024;2023-02-28T05:10:09;0.80;99.90
52275;DHT22;38228;50.940;4.024;2023-02-28T05:12:35;1.00;99.90
52275;DHT22;38228;50.940;4.024;2023-02-28T05:15:00;1.00;99.90
52275;DHT22;38228;50.940;4.024;2023-02-28T05:17:27;0.60;99.90
52275;DHT22;38228;50.940;4.024;2023-02-28T05:19:53;0.60;99.90
52275;DHT22;38228;50.940;4.024;2023-02-28T05:22:18;0.80;99.90
52275;DHT22;38228;50.940;4.024;2023-02-28T05:24:44;0.60;99.90
52275;DHT22;38228;50.940;4.024;2023-02-28T05:27:10;0.80;99.90
52275;DHT22;38228;50.940;4.024;2023-02-28T05:29:37;0.70;99.90
52275;DHT22;38228;50.940;4.024;2023-02-28T05:32:08;0.70;99.90
52275;DHT22;38228;50.940;4.024;2023-02-28T05:34:35;0.50;99.90
52275;DHT22;38228;50.940;4.024;2023-02-28T05:37:01;0.60;99.90
52275;DHT22;38228;50.940;4.024;2023-02-28T05:39:26;0.40;99.90
52275;DHT22;38228;50.940;4.024;2023-02-28T05:41:52;0.90;99.90
52275;DHT22;38228;50.940;4.024;2023-02-28T05:44:17;1.40;99.90
52275;DHT22;38228;50.940;4.024;2023-02-28T05:46:43;1.80;99.90
52275;DHT22;38228;50.940;4.024;2023-02-28T05:49:08;1.90;99.90
52275;DHT22;38228;50.940;4.024;2023-02-28T05:51:34;2.00;99.90
52275;DHT22;38228;50.940;4.024;2023-02-28T05:54:05;2.30;99.90
52275;DHT22;38228;50.940;4.024;2023-02-28T05:56:31;2.10;99.90
52275;DHT22;38228;50.940;4.024;2023-02-28T05:58:56;2.20;99.90
52275;DHT22;38228;50.940;4.024;2023-02-28T06:01:44;2.30;99.90
52275;DHT22;38228;50.940;4.024;2023-02-28T06:04:13;2.40;99.90
52275;DHT22;38228;50.940;4.024;2023-02-28T06:06:48;2.30;99.90
52275;DHT22;38228;50.940;4.024;2023-02-28T06:09:14;2.30;99.90
52275;DHT22;38228;50.940;4.024;2023-02-28T06:11:40;2.10;99.90
52275;DHT22;38228;50.940;4.024;2023-02-28T06:14:06;2.30;99.90
52275;DHT22;38228;50.940;4.024;2023-02-28T06:16:32;2.30;99.90
52275;DHT22;38228;50.940;4.024;2023-02-28T06:18:59;2.20;99.90
52275;DHT22;38228;50.940;4.024;2023-02-28T06:21:25;2.30;99.90
52275;DHT22;38228;50.940;4.024;2023-02-28T06:23:52;2.30;99.90
52275;DHT22;38228;50.940;4.024;2023-02-28T06:26:18;2.40;99.90
52275;DHT22;38228;50.940;4.024;2023-02-28T06:28:43;2.50;99.90
52275;DHT22;38228;50.940;4.024;2023-02-28T06:31:09;2.40;99.90
52275;DHT22;38228;50.940;4.024;2023-02-28T06:33:36;2.30;99.90
52275;DHT22;38228;50.940;4.024;2023-02-28T06:36:02;2.20;99.90
52275;DHT22;38228;50.940;4.024;2023-02-28T06:38:27;2.20;99.90
52275;DHT22;38228;50.940;4.024;2023-02-28T06:40:56;2.10;99.90
52275;DHT22;38228;50.940;4.024;2023-02-28T06:43:22;2.20;99.90
52275;DHT22;38228;50.940;4.024;2023-02-28T06:45:48;2.20;99.90
52275;DHT22;38228;50.940;4.024;2023-02-28T06:48:14;2.30;99.90
52275;DHT22;38228;50.940;4.024;2023-02-28T06:50:39;2.30;99.90
52275;DHT22;38228;50.940;4.024;2023-02-28T06:53:05;2.40;99.90
52275;DHT22;38228;50.940;4.024;2023-02-28T06:55:31;2.30;99.90
52275;DHT22;38228;50.940;4.024;2023-02-28T06:57:57;2.50;99.90
52275;DHT22;38228;50.940;4.024;2023-02-28T07:00:22;2.60;99.90
52275;DHT22;38228;50.940;4.024;2023-02-28T07:02:48;2.60;99.90
52275;DHT22;38228;50.940;4.024;2023-02-28T07:05:14;2.80;99.90
52275;DHT22;38228;50.940;4.024;2023-02-28T07:07:39;2.80;99.90
52275;DHT22;38228;50.940;4.024;2023-02-28T07:10:09;2.80;99.90
52275;DHT22;38228;50.940;4.024;2023-02-28T07:12:36;2.80;99.90
52275;DHT22;38228;50.940;4.024;2023-02-28T07:15:01;3.00;99.90
52275;DHT22;38228;50.940;4.024;2023-02-28T07:17:27;3.00;99.90
52275;DHT22;38228;50.940;4.024;2023-02-28T07:19:53;3.20;99.90
52275;DHT22;38228;50.940;4.024;2023-02-28T07:22:18;3.10;99.90
52275;DHT22;38228;50.940;4.024;2023-02-28T07:24:44;3.20;99.90
52275;DHT22;38228;50.940;4.024;2023-02-28T07:27:09;3.40;99.90
52275;DHT22;38228;50.940;4.024;2023-02-28T07:29:35;3.40;99.90
52275;DHT22;38228;50.940;4.024;2023-02-28T07:32:00;3.50;99.90
52275;DHT22;38228;50.940;4.024;2023-02-28T07:34:26;3.50;99.90
52275;DHT22;38228;50.940;4.024;2023-02-28T07:36:54;3.50;99.90
52275;DHT22;38228;50.940;4.024;2023-02-28T07:39:21;3.40;99.90
52275;DHT22;38228;50.940;4.024;2023-02-28T07:41:46;3.30;99.90
52275;DHT22;38228;50.940;4.024;2023-02-28T07:44:12;3.30;99.90
52275;DHT22;38228;50.940;4.024;2023-02-28T07:46:37;3.40;99.90
52275;DHT22;38228;50.940;4.024;2023-02-28T07:49:03;3.40;99.90
52275;DHT22;38228;50.940;4.024;2023-02-28T07:51:29;3.30;99.90
52275;DHT22;38228;50.940;4.024;2023-02-28T07:53:55;3.30;99.90
52275;DHT22;38228;50.940;4.024;2023-02-28T07:56:21;3.30;99.90
52275;DHT22;38228;50.940;4.024;2023-02-28T07:58:47;3.30;99.90
52275;DHT22;38228;50.940;4.024;2023-02-28T08:01:12;3.50;99.90
52275;DHT22;38228;50.940;4.024;2023-02-28T08:03:38;3.60;99.90
52275;DHT22;38228;50.940;4.024;2023-02-28T08:06:05;3.60;99.90
52275;DHT22;38228;50.940;4.024;2023-02-28T08:08:31;3.90;99.90
52275;DHT22;38228;50.940;4.024;2023-02-28T08:11:02;4.20;99.90
52275;DHT22;38228;50.940;4.024;2023-02-28T08:13:28;4.10;99.90
52275;DHT22;38228;50.940;4.024;2023-02-28T08:15:54;4.00;99.90
52275;DHT22;38228;50.940;4.024;2023-02-28T08:18:20;4.10;99.90
52275;DHT22;38228;50.940;4.024;2023-02-28T08:20:46;4.40;99.90
52275;DHT22;38228;50.940;4.024;2023-02-28T08:23:12;4.40;99.90
52275;DHT22;38228;50.940;4.024;2023-02-28T08:25:37;4.60;99.90
52275;DHT22;38228;50.940;4.024;2023-02-28T08:28:03;4.60;99.90
52275;DHT22;38228;50.940;4.024;2023-02-28T08:30:29;4.40;99.90
52275;DHT22;38228;50.940;4.024;2023-02-28T08:32:54;4.50;99.90
52275;DHT22;38228;50.940;4.024;2023-02-28T08:35:20;4.50;99.90
52275;DHT22;38228;50.940;4.024;2023-02-28T08:37:49;4.40;99.90
52275;DHT22;38228;50.940;4.024;2023-02-28T08:40:15;4.50;99.90
52275;DHT22;38228;50.940;4.024;2023-02-28T08:42:45;4.40;99.90
52275;DHT22;38228;50.940;4.024;2023-02-28T08:45:11;4.40;99.90
52275;DHT22;38228;50.940;4.024;2023-02-28T08:47:37;4.50;99.90
52275;DHT22;38228;50.940;4.024;2023-02-28T08:50:03;4.50;99.90
52275;DHT22;38228;50.940;4.024;2023-02-28T08:52:29;4.40;99.90
52275;DHT22;38228;50.940;4.024;2023-02-28T08:54:54;4.40;99.90
52275;DHT22;38228;50.940;4.024;2023-02-28T08:57:20;4.30;99.90
52275;DHT22;38228;50.940;4.024;2023-02-28T08:59:45;4.30;99.90
52275;DHT22;38228;50.940;4.024;2023-02-28T09:02:14;4.30;99.90
52275;DHT22;38228;50.940;4.024;2023-02-28T09:04:40;4.40;99.90
52275;DHT22;38228;50.940;4.024;2023-02-28T09:07:06;4.40;99.90
52275;DHT22;38228;50.940;4.024;2023-02-28T09:09:31;4.40;99.90
52275;DHT22;38228;50.940;4.024;2023-02-28T09:11:57;4.30;99.90
52275;DHT22;38228;50.940;4.024;2023-02-28T09:14:22;4.50;99.90
52275;DHT22;38228;50.940;4.024;2023-02-28T09:16:48;4.60;99.90
52275;DHT22;38228;50.940;4.024;2023-02-28T09:19:14;4.60;99.90
52275;DHT22;38228;50.940;4.024;2023-02-28T09:21:40;4.70;99.90
52275;DHT22;38228;50.940;4.024;2023-02-28T09:24:05;4.80;99.90
52275;DHT22;38228;50.940;4.024;2023-02-28T09:26:31;5.10;99.90
52275;DHT22;38228;50.940;4.024;2023-02-28T09:28:56;4.90;99.90
52275;DHT22;38228;50.940;4.024;2023-02-28T09:31:25;5.00;99.90
52275;DHT22;38228;50.940;4.024;2023-02-28T09:33:51;5.10;99.90
52275;DHT22;38228;50.940;4.024;2023-02-28T09:36:17;5.00;99.90
52275;DHT22;38228;50.940;4.024;2023-02-28T09:38:43;5.00;99.90
52275;DHT22;38228;50.940;4.024;2023-02-28T09:41:16;5.10;99.90
52275;DHT22;38228;50.940;4.024;2023-02-28T09:43:44;5.30;99.90
52275;DHT22;38228;50.940;4.024;2023-02-28T09:46:18;5.20;99.90
52275;DHT22;38228;50.940;4.024;2023-02-28T09:48:47;5.30;99.90
52275;DHT22;38228;50.940;4.024;2023-02-28T09:51:26;5.20;99.90
52275;DHT22;38228;50.940;4.024;2023-02-28T09:53:53;5.20;99.90
52275;DHT22;38228;50.940;4.024;2023-02-28T09:56:20;5.40;99.90
52275;DHT22;38228;50.940;4.024;2023-02-28T10:06:49;5.70;99.90
52275;DHT22;38228;50.940;4.024;2023-02-28T10:09:25;5.60;99.90
52275;DHT22;38228;50.940;4.024;2023-02-28T10:11:52;5.70;99.90
52275;DHT22;38228;50.940;4.024;2023-02-28T10:14:19;5.70;99.90
52275;DHT22;38228;50.940;4.024;2023-02-28T10:16:47;5.70;99.90
52275;DHT22;38228;50.940;4.024;2023-02-28T10:22:03;5.70;99.90
52275;DHT22;38228;50.940;4.024;2023-02-28T10:24:40;5.70;99.70
52275;DHT22;38228;50.940;4.024;2023-02-28T10:27:14;5.60;99.80
52275;DHT22;38228;50.940;4.024;2023-02-28T10:29:42;5.80;99.70
52275;DHT22;38228;50.940;4.024;2023-02-28T10:32:08;6.10;99.20
52275;DHT22;38228;50.940;4.024;2023-02-28T10:34:35;6.10;98.20
52275;DHT22;38228;50.940;4.024;2023-02-28T10:37:00;6.00;97.90
52275;DHT22;38228;50.940;4.024;2023-02-28T10:39:45;6.10;97.90
52275;DHT22;38228;50.940;4.024;2023-02-28T10:42:19;5.90;97.90
52275;DHT22;38228;50.940;4.024;2023-02-28T10:44:44;5.80;98.10
52275;DHT22;38228;50.940;4.024;2023-02-28T10:47:14;5.80;98.30
52275;DHT22;38228;50.940;4.024;2023-02-28T10:49:40;5.70;98.30
52275;DHT22;38228;50.940;4.024;2023-02-28T10:52:11;5.60;97.80
52275;DHT22;38228;50.940;4.024;2023-02-28T10:54:37;5.50;98.20
52275;DHT22;38228;50.940;4.024;2023-02-28T10:59:41;5.70;98.20
52275;DHT22;38228;50.940;4.024;2023-02-28T11:04:51;5.80;97.10
52275;DHT22;38228;50.940;4.024;2023-02-28T11:09:44;5.60;97.50
52275;DHT22;38228;50.940;4.024;2023-02-28T11:14:49;5.90;96.40
52275;DHT22;38228;50.940;4.024;2023-02-28T11:17:19;5.90;96.50
52275;DHT22;38228;50.940;4.024;2023-02-28T11:19:46;6.00;95.90
52275;DHT22;38228;50.940;4.024;2023-02-28T11:22:16;5.80;94.90
52275;DHT22;38228;50.940;4.024;2023-02-28T11:24:44;5.70;94.40
52275;DHT22;38228;50.940;4.024;2023-02-28T11:27:45;5.80;95.20
52275;DHT22;38228;50.940;4.024;2023-02-28T11:30:02;5.90;95.50
52275;DHT22;38228;50.940;4.024;2023-02-28T11:32:30;6.20;94.40
52275;DHT22;38228;50.940;4.024;2023-02-28T11:37:27;6.20;93.30
52275;DHT22;38228;50.940;4.024;2023-02-28T11:39:54;6.20;93.10
52275;DHT22;38228;50.940;4.024;2023-02-28T11:42:36;6.20;92.60
52275;DHT22;38228;50.940;4.024;2023-02-28T11:50:23;6.10;92.40
52275;DHT22;38228;50.940;4.024;2023-02-28T11:52:54;6.20;92.40
52275;DHT22;38228;50.940;4.024;2023-02-28T11:55:25;6.30;92.00
52275;DHT22;38228;50.940;4.024;2023-02-28T11:58:04;6.40;91.30
52275;DHT22;38228;50.940;4.024;2023-02-28T12:00:38;6.40;90.30
52275;DHT22;38228;50.940;4.024;2023-02-28T12:03:16;6.50;90.00
52275;DHT22;38228;50.940;4.024;2023-02-28T12:05:45;6.30;90.00
52275;DHT22;38228;50.940;4.024;2023-02-28T12:13:26;6.40;90.80
52275;DHT22;38228;50.940;4.024;2023-02-28T12:31:37;6.20;90.10
52275;DHT22;38228;50.940;4.024;2023-02-28T12:34:05;6.00;90.40
52275;DHT22;38228;50.940;4.024;2023-02-28T12:36:31;5.90;90.60
52275;DHT22;38228;50.940;4.024;2023-02-28T12:39:08;5.90;90.80
52275;DHT22;38228;50.940;4.024;2023-02-28T12:41:39;5.80;91.50
52275;DHT22;38228;50.940;4.024;2023-02-28T12:44:51;5.90;91.10
52275;DHT22;38228;50.940;4.024;2023-02-28T12:46:51;6.00;91.50
52275;DHT22;38228;50.940;4.024;2023-02-28T12:49:24;6.20;91.50
52275;DHT22;38228;50.940;4.024;2023-02-28T12:51:51;6.30;91.20
52275;DHT22;38228;50.940;4.024;2023-02-28T12:54:32;6.40;90.60
52275;DHT22;38228;50.940;4.024;2023-02-28T13:09:39;6.60;90.00
52275;DHT22;38228;50.940;4.024;2023-02-28T13:12:14;6.50;89.70
52275;DHT22;38228;50.940;4.024;2023-02-28T13:14:40;6.70;90.00
52275;DHT22;38228;50.940;4.024;2023-02-28T13:19:35;6.60;89.40
52275;DHT22;38228;50.940;4.024;2023-02-28T13:22:02;6.40;88.80
52275;DHT22;38228;50.940;4.024;2023-02-28T13:24:45;6.40;90.20
52275;DHT22;38228;50.940;4.024;2023-02-28T13:27:17;6.40;90.30
52275;DHT22;38228;50.940;4.024;2023-02-28T13:29:50;6.60;89.70
52275;DHT22;38228;50.940;4.024;2023-02-28T13:35:12;6.40;89.10
52275;DHT22;38228;50.940;4.024;2023-02-28T13:37:37;6.40;89.90
52275;DHT22;38228;50.940;4.024;2023-02-28T13:47:30;6.50;86.50
52275;DHT22;38228;50.940;4.024;2023-02-28T13:53:16;6.40;88.30
52275;DHT22;38228;50.940;4.024;2023-02-28T13:55:48;6.60;88.80
52275;DHT22;38228;50.940;4.024;2023-02-28T14:03:26;6.70;86.00
52275;DHT22;38228;50.940;4.024;2023-02-28T14:08:46;6.70;86.80
52275;DHT22;38228;50.940;4.024;2023-02-28T14:11:24;6.90;85.70
52275;DHT22;38228;50.940;4.024;2023-02-28T14:13:50;7.10;85.40
52275;DHT22;38228;50.940;4.024;2023-02-28T14:16:17;7.20;84.30
52275;DHT22;38228;50.940;4.024;2023-02-28T14:18:49;7.20;83.90
52275;DHT22;38228;50.940;4.024;2023-02-28T14:21:19;7.10;84.60
52275;DHT22;38228;50.940;4.024;2023-02-28T14:23:56;6.80;85.00
52275;DHT22;38228;50.940;4.024;2023-02-28T14:26:33;6.90;85.10
52275;DHT22;38228;50.940;4.024;2023-02-28T14:31:39;7.00;84.40
52275;DHT22;38228;50.940;4.024;2023-02-28T14:36:39;7.20;85.30
52275;DHT22;38228;50.940;4.024;2023-02-28T14:39:07;7.60;85.80
52275;DHT22;38228;50.940;4.024;2023-02-28T14:41:37;7.90;83.30
52275;DHT22;38228;50.940;4.024;2023-02-28T14:46:46;8.10;82.20
52275;DHT22;38228;50.940;4.024;2023-02-28T14:49:23;8.20;81.60
52275;DHT22;38228;50.940;4.024;2023-02-28T14:52:01;8.10;81.90
52275;DHT22;38228;50.940;4.024;2023-02-28T14:54:27;8.30;81.70
52275;DHT22;38228;50.940;4.024;2023-02-28T14:56:53;8.50;81.10
52275;DHT22;38228;50.940;4.024;2023-02-28T14:59:27;8.40;81.50
52275;DHT22;38228;50.940;4.024;2023-02-28T15:02:13;8.60;80.60
52275;DHT22;38228;50.940;4.024;2023-02-28T15:04:38;8.80;80.10
52275;DHT22;38228;50.940;4.024;2023-02-28T15:07:10;8.90;79.70
52275;DHT22;38228;50.940;4.024;2023-02-28T15:09:36;9.40;79.00
52275;DHT22;38228;50.940;4.024;2023-02-28T15:12:01;9.70;78.70
52275;DHT22;38228;50.940;4.024;2023-02-28T15:14:27;9.60;77.60
52275;DHT22;38228;50.940;4.024;2023-02-28T15:16:56;9.30;77.90
52275;DHT22;38228;50.940;4.024;2023-02-28T15:19:24;9.40;78.40
52275;DHT22;38228;50.940;4.024;2023-02-28T15:21:56;9.60;77.70
52275;DHT22;38228;50.940;4.024;2023-02-28T15:26:51;9.20;77.90
52275;DHT22;38228;50.940;4.024;2023-02-28T15:29:19;8.60;79.30
52275;DHT22;38228;50.940;4.024;2023-02-28T15:31:46;8.10;79.90
52275;DHT22;38228;50.940;4.024;2023-02-28T15:34:18;7.70;81.30
52275;DHT22;38228;50.940;4.024;2023-02-28T15:36:44;7.20;82.20
52275;DHT22;38228;50.940;4.024;2023-02-28T15:39:23;6.90;84.30
52275;DHT22;38228;50.940;4.024;2023-02-28T15:41:50;6.60;86.30
52275;DHT22;38228;50.940;4.024;2023-02-28T15:46:43;6.40;88.60
52275;DHT22;38228;50.940;4.024;2023-02-28T15:49:16;6.40;89.30
52275;DHT22;38228;50.940;4.024;2023-02-28T15:51:42;6.40;89.40
52275;DHT22;38228;50.940;4.024;2023-02-28T15:54:10;6.40;87.70
52275;DHT22;38228;50.940;4.024;2023-02-28T15:56:39;6.40;87.10
52275;DHT22;38228;50.940;4.024;2023-02-28T15:59:12;6.40;87.60
52275;DHT22;38228;50.940;4.024;2023-02-28T16:01:39;6.40;88.00
52275;DHT22;38228;50.940;4.024;2023-02-28T16:04:06;6.40;88.20
52275;DHT22;38228;50.940;4.024;2023-02-28T16:09:04;5.90;89.50
52275;DHT22;38228;50.940;4.024;2023-02-28T16:11:30;5.80;89.60
52275;DHT22;38228;50.940;4.024;2023-02-28T16:13:57;5.80;90.10
52275;DHT22;38228;50.940;4.024;2023-02-28T16:16:23;5.70;90.10
52275;DHT22;38228;50.940;4.024;2023-02-28T16:18:50;5.70;90.30
52275;DHT22;38228;50.940;4.024;2023-02-28T16:21:15;5.80;90.20
52275;DHT22;38228;50.940;4.024;2023-02-28T16:23:41;5.70;90.40
52275;DHT22;38228;50.940;4.024;2023-02-28T16:26:07;5.70;90.50
52275;DHT22;38228;50.940;4.024;2023-02-28T16:28:33;5.70;90.50
52275;DHT22;38228;50.940;4.024;2023-02-28T16:31:00;5.70;90.60
52275;DHT22;38228;50.940;4.024;2023-02-28T16:33:28;5.80;90.60
52275;DHT22;38228;50.940;4.024;2023-02-28T16:35:54;6.00;90.50
52275;DHT22;38228;50.940;4.024;2023-02-28T16:38:19;6.00;90.60
52275;DHT22;38228;50.940;4.024;2023-02-28T16:40:45;6.20;90.90
52275;DHT22;38228;50.940;4.024;2023-02-28T16:43:15;6.10;90.90
52275;DHT22;38228;50.940;4.024;2023-02-28T16:45:42;5.90;91.10
52275;DHT22;38228;50.940;4.024;2023-02-28T16:48:10;5.80;91.70
52275;DHT22;38228;50.940;4.024;2023-02-28T16:50:37;5.70;91.30
52275;DHT22;38228;50.940;4.024;2023-02-28T16:53:04;5.70;91.70
52275;DHT22;38228;50.940;4.024;2023-02-28T16:55:29;5.60;91.70
52275;DHT22;38228;50.940;4.024;2023-02-28T16:57:57;5.50;91.60
52275;DHT22;38228;50.940;4.024;2023-02-28T17:00:23;5.30;91.90
52275;DHT22;38228;50.940;4.024;2023-02-28T17:02:49;5.30;92.10
52275;DHT22;38228;50.940;4.024;2023-02-28T17:05:16;5.30;92.30
52275;DHT22;38228;50.940;4.024;2023-02-28T17:07:42;5.30;92.40
52275;DHT22;38228;50.940;4.024;2023-02-28T17:12:36;5.20;92.70
52275;DHT22;38228;50.940;4.024;2023-02-28T17:15:02;5.20;92.90
52275;DHT22;38228;50.940;4.024;2023-02-28T17:17:27;5.20;92.80
52275;DHT22;38228;50.940;4.024;2023-02-28T17:19:53;5.30;92.70
52275;DHT22;38228;50.940;4.024;2023-02-28T17:22:19;5.40;92.80
52275;DHT22;38228;50.940;4.024;2023-02-28T17:24:45;5.30;92.70
52275;DHT22;38228;50.940;4.024;2023-02-28T17:27:11;5.30;92.90
52275;DHT22;38228;50.940;4.024;2023-02-28T17:29:37;5.30;93.10
52275;DHT22;38228;50.940;4.024;2023-02-28T17:32:03;5.30;93.20
52275;DHT22;38228;50.940;4.024;2023-02-28T17:34:29;5.30;93.20
52275;DHT22;38228;50.940;4.024;2023-02-28T17:36:54;5.20;93.40
52275;DHT22;38228;50.940;4.024;2023-02-28T17:39:20;5.20;93.60
52275;DHT22;38228;50.940;4.024;2023-02-28T17:41:52;5.20;93.60
52275;DHT22;38228;50.940;4.024;2023-02-28T17:44:18;5.10;93.80
52275;DHT22;38228;50.940;4.024;2023-02-28T17:46:44;5.10;94.10
52275;DHT22;38228;50.940;4.024;2023-02-28T17:49:10;5.10;94.10
52275;DHT22;38228;50.940;4.024;2023-02-28T17:51:36;5.20;93.80
52275;DHT22;38228;50.940;4.024;2023-02-28T17:54:01;5.20;94.00
52275;DHT22;38228;50.940;4.024;2023-02-28T17:56:27;5.20;94.00
52275;DHT22;38228;50.940;4.024;2023-02-28T17:58:53;5.10;94.00
52275;DHT22;38228;50.940;4.024;2023-02-28T18:01:20;5.10;94.10
52275;DHT22;38228;50.940;4.024;2023-02-28T18:03:46;5.10;94.30
52275;DHT22;38228;50.940;4.024;2023-02-28T18:08:44;5.20;94.20
52275;DHT22;38228;50.940;4.024;2023-02-28T18:11:09;5.10;94.50
52275;DHT22;38228;50.940;4.024;2023-02-28T18:13:44;5.10;94.60